createdAt,value
2023-05-08T00:03:53.936Z,9.67
2023-05-08T00:08:56.155Z,9.59
2023-05-08T00:13:57.968Z,9.55
2023-05-08T00:19:00.652Z,9.50
2023-05-08T00:24:02.521Z,9.44
2023-05-08T00:29:06.511Z,9.38
2023-05-08T00:34:08.963Z,9.30
2023-05-08T00:39:10.794Z,9.22
2023-05-08T00:44:12.640Z,9.22
2023-05-08T00:49:16.074Z,9.23
2023-05-08T00:54:18.347Z,9.25
2023-05-08T00:59:22.889Z,9.27
2023-05-08T01:04:25.365Z,9.26
2023-05-08T01:09:27.283Z,9.20
2023-05-08T01:14:55.193Z,9.15
2023-05-08T01:20:36.884Z,9.09
2023-05-08T01:26:03.374Z,9.04
2023-05-08T01:31:21.931Z,8.99
2023-05-08T01:36:32.065Z,8.97
2023-05-08T01:41:37.005Z,8.98
2023-05-08T01:46:39.027Z,8.99
2023-05-08T01:51:46.023Z,8.98
2023-05-08T01:56:50.415Z,8.95
2023-05-08T02:01:57.062Z,8.92
2023-05-08T02:07:01.128Z,8.86
2023-05-08T02:12:06.791Z,8.84
2023-05-08T02:17:10.586Z,8.81
2023-05-08T02:22:14.051Z,8.80
2023-05-08T02:27:16.887Z,8.79
2023-05-08T02:32:20.953Z,8.77
2023-05-08T02:37:24.306Z,8.74
2023-05-08T02:42:26.520Z,8.71
2023-05-08T02:47:40.125Z,8.63
2023-05-08T02:52:49.714Z,8.57
2023-05-08T02:57:54.510Z,8.54
2023-05-08T03:03:01.586Z,8.51
2023-05-08T03:08:08.136Z,8.48
2023-05-08T03:13:12.470Z,8.47
2023-05-08T03:18:21.231Z,8.43
2023-05-08T03:23:26.516Z,8.38
2023-05-08T03:28:30.628Z,8.38
2023-05-08T03:33:37.267Z,8.40
2023-05-08T03:38:39.684Z,8.38
2023-05-08T03:43:44.050Z,8.38
2023-05-08T03:48:47.509Z,8.36
2023-05-08T03:53:49.717Z,8.38
2023-05-08T03:59:21.744Z,8.45
2023-05-08T04:04:39.999Z,8.53
2023-05-08T04:09:53.436Z,8.63
2023-05-08T04:15:01.487Z,8.66
2023-05-08T04:20:07.156Z,8.61
2023-05-08T04:25:11.783Z,8.59
2023-05-08T04:30:15.193Z,8.63
2023-05-08T04:35:18.333Z,8.66
2023-05-08T04:40:21.368Z,8.72
2023-05-08T04:45:23.409Z,8.72
2023-05-08T04:50:25.839Z,8.73
2023-05-08T04:55:28.104Z,8.74
2023-05-08T05:00:30.676Z,8.77
2023-05-08T05:05:36.421Z,8.82
2023-05-08T05:10:40.832Z,8.88
2023-05-08T05:15:43.770Z,8.95
2023-05-08T05:20:46.469Z,9.06
2023-05-08T05:25:49.199Z,9.15
2023-05-08T05:30:51.819Z,9.20
2023-05-08T05:35:53.727Z,9.23
2023-05-08T05:40:55.688Z,9.33
2023-05-08T05:46:07.501Z,9.45
2023-05-08T05:51:10.070Z,9.54
2023-05-08T05:56:12.102Z,9.64
2023-05-08T06:01:14.056Z,9.69
2023-05-08T06:06:16.023Z,9.79
2023-05-08T06:11:17.919Z,9.93
2023-05-08T06:16:24.508Z,10.10
2023-05-08T06:21:26.860Z,10.24
2023-05-08T06:26:28.788Z,10.37
2023-05-08T06:31:30.709Z,10.53
2023-05-08T06:36:32.821Z,10.66
2023-05-08T06:41:34.688Z,10.83
2023-05-08T06:46:36.527Z,10.96
2023-05-08T06:51:39.547Z,11.13
2023-05-08T06:56:44.762Z,11.28
2023-05-08T07:01:46.620Z,11.37
2023-05-08T07:06:48.453Z,11.49
2023-05-08T07:11:50.301Z,11.63
2023-05-08T07:16:52.040Z,11.74
2023-05-08T07:21:54.871Z,11.87
2023-05-08T07:26:56.917Z,11.94
2023-05-08T07:31:58.839Z,12.07
2023-05-08T07:37:00.761Z,12.21
2023-05-08T07:42:06.089Z,12.32
2023-05-08T07:47:07.968Z,12.45
2023-05-08T07:52:10.074Z,12.58
2023-05-08T07:57:11.936Z,12.68
2023-05-08T08:02:14.558Z,12.83
2023-05-08T08:07:16.814Z,12.95
2023-05-08T08:12:18.732Z,13.16
2023-05-08T08:17:20.758Z,13.23
2023-05-08T08:22:23.071Z,13.29
2023-05-08T08:27:25.129Z,13.39
2023-05-08T08:32:27.014Z,13.57
2023-05-08T08:37:29.386Z,13.65
2023-05-08T08:42:31.725Z,13.72
2023-05-08T08:47:41.562Z,13.68
2023-05-08T08:53:01.308Z,13.80
2023-05-08T08:58:24.256Z,14.02
2023-05-08T09:03:27.083Z,14.10
2023-05-08T09:08:29.217Z,14.14
2023-05-08T09:13:31.307Z,14.22
2023-05-08T09:18:33.649Z,14.32
2023-05-08T09:23:59.305Z,14.43
2023-05-08T09:29:18.848Z,14.58
2023-05-08T09:34:28.134Z,14.76
2023-05-08T09:39:30.077Z,14.93
2023-05-08T09:44:51.855Z,14.99
2023-05-08T09:49:57.054Z,15.03
2023-05-08T09:55:03.988Z,15.06
2023-05-08T10:00:06.414Z,15.24
2023-05-08T10:05:32.915Z,15.45
2023-05-08T10:10:37.049Z,15.65
2023-05-08T10:15:42.429Z,15.78
2023-05-08T10:20:48.910Z,15.97
2023-05-08T10:26:02.696Z,16.02
2023-05-08T10:31:07.420Z,16.04
2023-05-08T10:36:10.300Z,16.16
2023-05-08T10:41:13.455Z,16.20
2023-05-08T10:46:56.644Z,16.20
2023-05-08T10:52:12.927Z,16.23
2023-05-08T10:57:15.714Z,16.35
2023-05-08T11:02:28.938Z,16.36
2023-05-08T11:07:57.424Z,16.36
2023-05-08T11:13:00.250Z,16.43
2023-05-08T11:18:05.088Z,16.40
2023-05-08T11:23:27.435Z,16.45
2023-05-08T11:28:58.706Z,16.55
2023-05-08T11:34:00.585Z,16.65
2023-05-08T11:39:07.904Z,16.80
2023-05-08T11:44:20.125Z,16.83
2023-05-08T11:49:27.404Z,16.89
2023-05-08T11:54:32.056Z,16.94
2023-05-08T11:59:37.658Z,17.04
2023-05-08T12:04:48.199Z,17.17
2023-05-08T12:09:50.356Z,17.20
2023-05-08T12:14:52.241Z,17.29
2023-05-08T12:19:59.090Z,17.37
2023-05-08T12:25:04.784Z,17.51
2023-05-08T12:30:09.343Z,17.56
2023-05-08T12:35:12.858Z,17.59
2023-05-08T12:40:46.733Z,17.65
2023-05-08T12:45:54.108Z,17.68
2023-05-08T12:51:02.462Z,17.68
2023-05-08T12:56:05.018Z,17.65
2023-05-08T13:01:13.719Z,17.56
2023-05-08T13:06:22.512Z,17.51
2023-05-08T13:11:33.305Z,17.52
2023-05-08T13:16:46.136Z,17.61
2023-05-08T13:21:48.217Z,17.65
2023-05-08T13:26:50.140Z,17.74
2023-05-08T13:31:52.235Z,17.79
2023-05-08T13:36:54.260Z,17.81
2023-05-08T13:41:56.095Z,17.79
2023-05-08T13:46:58.043Z,17.78
2023-05-08T13:51:59.884Z,17.78
2023-05-08T13:57:02.807Z,17.84
2023-05-08T14:02:04.679Z,17.86
2023-05-08T14:07:06.989Z,17.89
2023-05-08T14:12:09.296Z,17.93
2023-05-08T14:17:11.440Z,17.96
2023-05-08T14:22:13.249Z,17.98
2023-05-08T14:27:15.217Z,18.05
2023-05-08T14:32:17.013Z,18.12
2023-05-08T14:37:18.850Z,18.11
2023-05-08T14:42:23.635Z,18.16
2023-05-08T14:47:26.117Z,18.20
2023-05-08T14:52:27.987Z,18.24
2023-05-08T14:57:29.969Z,18.28
2023-05-08T15:02:31.991Z,18.30
2023-05-08T15:07:34.869Z,18.35
2023-05-08T15:12:36.853Z,18.35
2023-05-08T15:17:41.538Z,18.27
2023-05-08T15:22:43.742Z,18.17
2023-05-08T15:27:46.085Z,18.01
2023-05-08T15:32:48.761Z,17.95
2023-05-08T15:37:50.961Z,17.89
2023-05-08T15:42:52.732Z,17.83
2023-05-08T15:47:54.581Z,17.79
2023-05-08T15:52:56.362Z,17.74
2023-05-08T15:57:58.107Z,17.65
2023-05-08T16:03:00.269Z,17.58
2023-05-08T16:08:02.381Z,17.52
2023-05-08T16:13:04.346Z,17.47
2023-05-08T16:18:06.738Z,17.38
2023-05-08T16:23:08.995Z,17.30
2023-05-08T16:28:10.763Z,17.19
2023-05-08T16:33:12.735Z,17.08
2023-05-08T16:38:14.592Z,16.98
2023-05-08T16:43:16.439Z,16.92
2023-05-08T16:48:18.236Z,16.86
2023-05-08T16:53:20.146Z,16.80
2023-05-08T16:58:22.997Z,16.72
2023-05-08T17:03:25.151Z,16.63
2023-05-08T17:08:27.122Z,16.51
2023-05-08T17:13:29.182Z,16.44
2023-05-08T17:18:31.337Z,16.35
2023-05-08T17:23:33.228Z,16.30
2023-05-08T17:28:35.104Z,16.23
2023-05-08T17:33:37.896Z,16.18
2023-05-08T17:38:46.125Z,16.08
2023-05-08T17:43:48.045Z,15.99
2023-05-08T17:48:50.146Z,15.89
2023-05-08T17:53:53.186Z,15.77
2023-05-08T17:58:55.699Z,15.68
2023-05-08T18:03:57.596Z,15.57
2023-05-08T18:08:59.375Z,15.51
2023-05-08T18:14:01.220Z,15.44
2023-05-08T18:19:02.976Z,15.37
2023-05-08T18:24:05.814Z,15.29
2023-05-08T18:29:07.958Z,15.21
2023-05-08T18:34:09.827Z,15.11
2023-05-08T18:39:11.912Z,15.03
2023-05-08T18:44:15.010Z,14.92
2023-05-08T18:49:16.919Z,14.83
2023-05-08T18:54:18.978Z,14.75
2023-05-08T18:59:21.599Z,14.66
2023-05-08T19:04:23.474Z,14.61
2023-05-08T19:09:25.481Z,14.58
2023-05-08T19:14:27.391Z,14.54
2023-05-08T19:19:29.691Z,14.50
2023-05-08T19:24:31.982Z,14.44
2023-05-08T19:29:35.465Z,14.41
2023-05-08T19:34:39.783Z,14.37
2023-05-08T19:39:44.518Z,14.32
2023-05-08T19:44:46.428Z,14.23
2023-05-08T19:49:49.350Z,14.15
2023-05-08T19:54:51.158Z,14.08
2023-05-08T19:59:53.239Z,14.00
2023-05-08T20:05:21.273Z,13.92
2023-05-08T20:10:16.870Z,13.86
2023-05-08T20:15:18.783Z,13.83
2023-05-08T20:20:21.841Z,13.82
2023-05-08T20:25:23.917Z,13.76
2023-05-08T20:30:25.984Z,13.72
2023-05-08T20:35:27.977Z,13.70
2023-05-08T20:40:29.916Z,13.65
2023-05-08T20:45:31.771Z,13.59
2023-05-08T20:50:33.627Z,13.54
2023-05-08T20:55:35.487Z,13.48
2023-05-08T21:00:37.317Z,13.43
2023-05-08T21:05:39.146Z,13.36
2023-05-08T21:10:41.032Z,13.29
2023-05-08T21:15:42.816Z,13.20
2023-05-08T21:20:50.471Z,13.04
2023-05-08T21:25:53.136Z,12.90
2023-05-08T21:30:54.855Z,12.84
2023-05-08T21:35:56.642Z,12.79
2023-05-08T21:41:08.415Z,12.76
2023-05-08T21:46:10.380Z,12.72
2023-05-08T21:51:12.346Z,12.65
2023-05-08T21:56:14.214Z,12.59
2023-05-08T22:01:16.192Z,12.57
2023-05-08T22:06:17.988Z,12.54
2023-05-08T22:11:19.730Z,12.52
2023-05-08T22:16:21.582Z,12.49
2023-05-08T22:21:23.421Z,12.44
2023-05-08T22:26:25.297Z,12.36
2023-05-08T22:31:27.131Z,12.30
2023-05-08T22:36:29.289Z,12.21
2023-05-08T22:41:31.222Z,12.17
2023-05-08T22:46:34.385Z,12.13
2023-05-08T22:51:36.727Z,12.10
2023-05-08T22:56:38.587Z,12.07
2023-05-08T23:01:40.535Z,12.02
2023-05-08T23:06:42.408Z,11.95
2023-05-08T23:11:44.256Z,11.85
2023-05-08T23:16:46.323Z,11.77
2023-05-08T23:21:48.242Z,11.72
2023-05-08T23:26:52.544Z,11.68
2023-05-08T23:31:54.530Z,11.66
2023-05-08T23:36:56.363Z,11.62
2023-05-08T23:41:58.184Z,11.58
2023-05-08T23:47:00.126Z,11.53
2023-05-08T23:52:02.196Z,11.48
2023-05-08T23:57:04.145Z,11.41
